Assembly, North Carolina
Current Conditions -  °F | °C
As of 6:54 AM on Tuesday 21 Oct 2014 (Local Time) from KAVL Reporting Station
Broken Clouds Broken Clouds  
Wind Chill:   Ceiling: 7000
Heat Index:   Visibility: 10mi
Dew Point:   Wind: 0mph
Humidity: 96%   Direction: NA
Pressure: 30"   Gusts: NA
Location:  35.5251°N, 82.9723°W
Report Text: KAVL 211054Z 00000KT 10SM FEW001 BKN070 06/05 A3000 RMK AO2 SLP149 T00560050
Loading
Personal Weather Stations






























Interactive Weather Map
Tropical Storm Tracking
New forecast layout! Learn more

10-Day Weather Forecast

Advertisements
Track Severe Weather on mobile